Saint Catherine, Egypt
Current Conditions -  °F | °C
As of 8:00 PM on Monday 20 Oct 2014 (Local Time) from HESC Reporting Station
Clear Clear  
Wind Chill: 57°   Ceiling: Unl
Heat Index: 57°   Visibility: 6mi
Dew Point: 43°   Wind: 10mph
Humidity: 59%   Direction: 360°N
Pressure: 30.15"   Gusts: NA
Location:  28.56°N, 33.98°E
Report Text: HESC 201800Z 36009KT CAVOK 14/06 Q1021 NOSIG
Loading
Personal Weather Stations






























Interactive Weather Map New forecast layout! Learn more

10-Day Weather Forecast

Advertisements
Track Severe Weather on mobile